createdAt,value
2019-06-26T00:00:38.349Z,21.56
2019-06-26T00:01:38.399Z,21.46
2019-06-26T00:02:38.383Z,21.42
2019-06-26T00:03:38.330Z,21.45
2019-06-26T00:04:38.297Z,21.36
2019-06-26T00:05:38.288Z,21.36
2019-06-26T00:06:38.296Z,21.30
2019-06-26T00:07:38.262Z,21.26
2019-06-26T00:08:38.312Z,21.21
2019-06-26T00:09:38.244Z,21.24
2019-06-26T00:10:38.228Z,21.34
2019-06-26T00:11:38.220Z,21.36
2019-06-26T00:12:38.209Z,21.30
2019-06-26T00:13:38.196Z,21.32
2019-06-26T00:14:39.034Z,21.38
2019-06-26T00:15:38.172Z,21.50
2019-06-26T00:16:38.160Z,21.46
2019-06-26T00:17:38.151Z,21.53
2019-06-26T00:18:38.141Z,21.61
2019-06-26T00:19:38.126Z,21.53
2019-06-26T00:20:38.172Z,21.51
2019-06-26T00:21:38.106Z,21.54
2019-06-26T00:22:38.092Z,21.56
2019-06-26T00:23:38.082Z,21.48
2019-06-26T00:24:38.117Z,21.50
2019-06-26T00:25:38.084Z,21.51
2019-06-26T00:26:38.100Z,21.50
2019-06-26T00:27:38.048Z,21.53
2019-06-26T00:28:38.025Z,21.51
2019-06-26T00:29:38.018Z,21.41
2019-06-26T00:30:38.005Z,21.36
2019-06-26T00:31:37.991Z,21.39
2019-06-26T00:32:38.024Z,21.41
2019-06-26T00:33:37.968Z,21.44
2019-06-26T00:34:38.121Z,21.44
2019-06-26T00:35:37.947Z,21.35
2019-06-26T00:36:37.938Z,21.32
2019-06-26T00:37:38.168Z,21.26
2019-06-26T00:38:40.077Z,21.32
2019-06-26T00:39:37.926Z,21.21
2019-06-26T00:40:37.892Z,21.16
2019-06-26T00:41:37.879Z,21.09
2019-06-26T00:42:37.873Z,21.02
2019-06-26T00:43:42.240Z,21.08
2019-06-26T00:44:37.848Z,21.05
2019-06-26T00:45:37.834Z,21.13
2019-06-26T00:46:37.823Z,21.17
2019-06-26T00:47:37.811Z,21.26
2019-06-26T00:48:37.801Z,21.36
2019-06-26T00:49:37.846Z,21.35
2019-06-26T00:50:37.778Z,21.35
2019-06-26T00:51:37.772Z,21.30
2019-06-26T00:52:37.757Z,21.32
2019-06-26T00:53:37.747Z,21.32
2019-06-26T00:54:37.735Z,21.29
2019-06-26T00:55:37.782Z,21.19
2019-06-26T00:56:38.233Z,21.16
2019-06-26T00:57:37.717Z,21.02
2019-06-26T00:58:37.689Z,21.08
2019-06-26T00:59:37.678Z,20.87
2019-06-26T01:00:37.668Z,20.65
2019-06-26T01:01:37.858Z,20.47
2019-06-26T01:02:37.642Z,20.33
2019-06-26T01:03:37.632Z,20.21
2019-06-26T01:04:37.620Z,20.05
2019-06-26T01:05:37.621Z,19.94
2019-06-26T01:06:37.599Z,20.00
2019-06-26T01:07:37.645Z,19.80
2019-06-26T01:08:37.575Z,19.98
2019-06-26T01:09:37.563Z,19.80
2019-06-26T01:10:37.552Z,19.80
2019-06-26T01:11:37.541Z,19.79
2019-06-26T01:12:37.531Z,19.76
2019-06-26T01:13:37.577Z,19.61
2019-06-26T01:14:37.518Z,19.65
2019-06-26T01:15:37.497Z,19.65
2019-06-26T01:16:37.485Z,19.65
2019-06-26T01:17:37.476Z,19.63
2019-06-26T01:18:37.468Z,19.58
2019-06-26T01:19:37.685Z,19.61
2019-06-26T01:20:37.440Z,19.61
2019-06-26T01:21:37.430Z,19.66
2019-06-26T01:22:37.426Z,19.57
2019-06-26T01:23:37.408Z,19.46
2019-06-26T01:24:37.394Z,19.51
2019-06-26T01:25:37.438Z,19.32
2019-06-26T01:26:37.377Z,19.23
2019-06-26T01:27:37.358Z,19.05
2019-06-26T01:28:37.347Z,18.95
2019-06-26T01:29:37.335Z,18.76
2019-06-26T01:30:37.323Z,18.65
2019-06-26T01:31:37.530Z,18.50
2019-06-26T01:32:37.305Z,18.52
2019-06-26T01:33:37.289Z,18.43
2019-06-26T01:34:37.276Z,18.46
2019-06-26T01:35:37.272Z,18.34
2019-06-26T01:36:37.255Z,18.42
2019-06-26T01:37:37.310Z,18.37
2019-06-26T01:38:37.231Z,18.46
2019-06-26T01:39:37.219Z,18.37
2019-06-26T01:40:37.207Z,18.37
2019-06-26T01:41:37.196Z,18.54
2019-06-26T01:42:37.198Z,18.54
2019-06-26T01:43:37.236Z,18.67
2019-06-26T01:44:37.161Z,18.76
2019-06-26T01:45:37.191Z,18.74
2019-06-26T01:46:37.138Z,18.76
2019-06-26T01:47:37.134Z,18.84
2019-06-26T01:48:37.117Z,18.87
2019-06-26T01:49:37.169Z,18.95
2019-06-26T01:50:37.091Z,18.92
2019-06-26T01:51:37.081Z,18.95
2019-06-26T01:52:37.085Z,18.95
2019-06-26T01:53:37.058Z,18.95
2019-06-26T01:54:37.055Z,18.98
2019-06-26T01:55:37.085Z,18.94
2019-06-26T01:56:37.027Z,19.05
2019-06-26T01:57:37.010Z,19.02
2019-06-26T01:58:37.066Z,19.21
2019-06-26T01:59:36.989Z,19.10
2019-06-26T02:00:36.976Z,19.10
2019-06-26T02:01:36.964Z,19.06
2019-06-26T02:02:36.954Z,19.10
2019-06-26T02:03:36.942Z,19.05
2019-06-26T02:04:37.142Z,18.97
2019-06-26T02:05:36.928Z,18.94
2019-06-26T02:06:36.995Z,18.92
2019-06-26T02:07:36.928Z,18.94
2019-06-26T02:08:36.886Z,18.90
2019-06-26T02:09:36.872Z,18.90
2019-06-26T02:10:36.927Z,18.87
2019-06-26T02:11:36.851Z,18.90
2019-06-26T02:12:36.840Z,18.97
2019-06-26T02:13:36.829Z,18.92
2019-06-26T02:14:36.815Z,19.06
2019-06-26T02:15:36.804Z,19.06
2019-06-26T02:16:36.854Z,19.17
2019-06-26T02:17:36.822Z,19.20
2019-06-26T02:18:36.770Z,19.13
2019-06-26T02:19:36.761Z,19.10
2019-06-26T02:20:36.750Z,19.20
2019-06-26T02:21:36.747Z,19.21
2019-06-26T02:22:36.938Z,19.24
2019-06-26T02:23:36.726Z,19.06
2019-06-26T02:24:36.702Z,19.02
2019-06-26T02:25:36.693Z,19.14
2019-06-26T02:26:36.679Z,19.08
2019-06-26T02:27:36.670Z,19.20
2019-06-26T02:28:36.869Z,19.14
2019-06-26T02:29:36.652Z,19.05
2019-06-26T02:30:36.635Z,19.21
2019-06-26T02:31:36.625Z,19.15
2019-06-26T02:32:36.614Z,19.13
2019-06-26T02:33:36.600Z,19.14
2019-06-26T02:34:36.800Z,19.06
2019-06-26T02:35:36.584Z,19.08
2019-06-26T02:36:36.571Z,19.02
2019-06-26T02:37:36.559Z,18.92
2019-06-26T02:38:36.546Z,18.92
2019-06-26T02:39:36.539Z,18.86
2019-06-26T02:40:36.738Z,18.80
2019-06-26T02:41:36.511Z,18.79
2019-06-26T02:42:36.499Z,18.70
2019-06-26T02:43:36.495Z,18.77
2019-06-26T02:44:52.160Z,18.83
2019-06-26T02:45:37.685Z,18.83
2019-06-26T02:46:36.456Z,18.76
2019-06-26T02:47:36.451Z,18.73
2019-06-26T02:48:36.434Z,18.65
2019-06-26T02:49:36.422Z,18.65
2019-06-26T02:50:36.415Z,18.64
2019-06-26T02:51:36.459Z,18.67
2019-06-26T02:52:36.389Z,18.77
2019-06-26T02:53:36.378Z,18.74
2019-06-26T02:54:36.369Z,18.86
2019-06-26T02:55:36.362Z,18.86
2019-06-26T02:56:36.343Z,18.91
2019-06-26T02:57:36.409Z,18.80
2019-06-26T02:58:36.321Z,18.76
2019-06-26T02:59:36.310Z,18.79
2019-06-26T03:00:36.300Z,18.79
2019-06-26T03:01:36.288Z,18.72
2019-06-26T03:02:36.280Z,18.82
2019-06-26T03:03:36.329Z,18.70
2019-06-26T03:04:36.254Z,18.65
2019-06-26T03:05:36.244Z,18.65
2019-06-26T03:06:36.232Z,18.65
2019-06-26T03:07:36.245Z,18.62
2019-06-26T03:08:36.212Z,18.59
2019-06-26T03:09:36.264Z,18.54
2019-06-26T03:10:36.189Z,18.54
2019-06-26T03:11:36.181Z,18.49
2019-06-26T03:12:36.165Z,18.52
2019-06-26T03:13:36.158Z,18.54
2019-06-26T03:14:36.150Z,18.47
2019-06-26T03:15:36.387Z,18.52
2019-06-26T03:16:36.122Z,18.37
2019-06-26T03:17:36.110Z,18.39
2019-06-26T03:18:36.098Z,18.43
2019-06-26T03:19:36.087Z,18.57
2019-06-26T03:20:36.085Z,18.52
2019-06-26T03:21:36.279Z,18.59
2019-06-26T03:22:36.055Z,18.68
2019-06-26T03:23:36.044Z,18.64
2019-06-26T03:24:36.031Z,18.64
2019-06-26T03:25:36.078Z,18.73
2019-06-26T03:26:36.009Z,18.64
2019-06-26T03:27:36.061Z,18.72
2019-06-26T03:28:35.996Z,18.84
2019-06-26T03:29:35.976Z,18.94
2019-06-26T03:30:35.965Z,18.87
2019-06-26T03:31:35.956Z,18.79
2019-06-26T03:32:35.946Z,18.79
2019-06-26T03:33:35.993Z,18.65
2019-06-26T03:34:35.922Z,18.62
2019-06-26T03:35:35.909Z,18.64
2019-06-26T03:36:35.900Z,18.65
2019-06-26T03:37:35.886Z,18.58
2019-06-26T03:38:35.876Z,18.64
2019-06-26T03:39:35.930Z,18.52
2019-06-26T03:40:35.863Z,18.54
2019-06-26T03:41:35.843Z,18.54
2019-06-26T03:42:35.832Z,18.58
2019-06-26T03:43:35.917Z,18.68
2019-06-26T03:44:35.810Z,18.67
2019-06-26T03:45:35.853Z,18.65
2019-06-26T03:46:35.787Z,18.68
2019-06-26T03:47:35.778Z,18.59
2019-06-26T03:48:35.764Z,18.62
2019-06-26T03:49:35.815Z,18.62
2019-06-26T03:50:35.741Z,18.67
2019-06-26T03:51:35.762Z,18.62
2019-06-26T03:52:35.720Z,18.76
2019-06-26T03:53:35.708Z,18.76
2019-06-26T03:54:35.696Z,18.84
2019-06-26T03:55:35.745Z,18.82
2019-06-26T03:56:35.674Z,18.90
2019-06-26T03:57:35.663Z,18.97
2019-06-26T03:58:35.653Z,19.05
2019-06-26T03:59:35.652Z,19.18
2019-06-26T04:00:35.638Z,19.25
2019-06-26T04:01:35.682Z,19.29
2019-06-26T04:02:35.606Z,19.43
2019-06-26T04:03:35.595Z,19.48
2019-06-26T04:04:35.586Z,19.55
2019-06-26T04:05:35.773Z,19.47
2019-06-26T04:06:35.561Z,19.57
2019-06-26T04:07:35.616Z,19.50
2019-06-26T04:08:35.542Z,19.53
2019-06-26T04:09:35.531Z,19.50
2019-06-26T04:10:35.518Z,19.51
2019-06-26T04:11:35.508Z,19.46
2019-06-26T04:12:35.497Z,19.47
2019-06-26T04:13:35.707Z,19.42
2019-06-26T04:14:35.483Z,19.51
2019-06-26T04:15:42.222Z,19.48
2019-06-26T04:16:36.451Z,19.54
2019-06-26T04:17:35.438Z,19.55
2019-06-26T04:18:35.425Z,19.53
2019-06-26T04:19:35.478Z,19.50
2019-06-26T04:20:35.403Z,19.55
2019-06-26T04:21:35.444Z,19.65
2019-06-26T04:22:35.380Z,19.65
2019-06-26T04:23:35.372Z,19.75
2019-06-26T04:24:35.355Z,19.75
2019-06-26T04:25:38.122Z,19.87
2019-06-26T04:26:35.334Z,19.95
2019-06-26T04:27:35.320Z,19.95
2019-06-26T04:28:35.310Z,20.08
2019-06-26T04:29:35.302Z,20.13
2019-06-26T04:30:35.285Z,20.21
2019-06-26T04:31:35.338Z,20.25
2019-06-26T04:32:35.262Z,20.28
2019-06-26T04:33:35.254Z,20.30
2019-06-26T04:34:35.243Z,20.43
2019-06-26T04:35:35.227Z,20.53
2019-06-26T04:36:35.218Z,20.69
2019-06-26T04:37:35.279Z,20.66
2019-06-26T04:38:35.192Z,20.77
2019-06-26T04:39:35.182Z,20.87
2019-06-26T04:40:35.169Z,20.98
2019-06-26T04:41:35.158Z,21.01
2019-06-26T04:42:35.146Z,21.16
2019-06-26T04:43:35.349Z,21.24
2019-06-26T04:44:35.122Z,21.27
2019-06-26T04:45:35.114Z,21.26
2019-06-26T04:46:35.100Z,21.29
2019-06-26T04:47:35.090Z,21.29
2019-06-26T04:48:35.080Z,21.44
2019-06-26T04:49:35.130Z,21.45
2019-06-26T04:50:35.057Z,21.46
2019-06-26T04:51:35.047Z,21.39
2019-06-26T04:52:35.036Z,21.57
2019-06-26T04:53:35.023Z,21.63
2019-06-26T04:54:35.010Z,21.71
2019-06-26T04:55:35.209Z,21.79
2019-06-26T04:56:34.991Z,21.85
2019-06-26T04:57:35.021Z,21.92
2019-06-26T04:58:34.966Z,21.92
2019-06-26T04:59:34.955Z,21.99
2019-06-26T05:00:34.947Z,22.07
2019-06-26T05:01:34.998Z,22.04
2019-06-26T05:02:34.925Z,22.19
2019-06-26T05:03:34.912Z,22.16
2019-06-26T05:04:34.899Z,22.16
2019-06-26T05:05:39.486Z,22.12
2019-06-26T05:06:35.934Z,22.17
2019-06-26T05:07:35.195Z,22.16
2019-06-26T05:08:34.856Z,22.41
2019-06-26T05:09:34.841Z,22.41
2019-06-26T05:10:34.829Z,22.52
2019-06-26T05:11:34.836Z,22.53
2019-06-26T05:12:34.869Z,22.59
2019-06-26T05:13:34.859Z,22.60
2019-06-26T05:14:34.783Z,22.67
2019-06-26T05:15:34.773Z,22.74
2019-06-26T05:16:34.763Z,22.86
2019-06-26T05:17:34.749Z,22.94
2019-06-26T05:18:34.801Z,23.11
2019-06-26T05:19:34.729Z,23.19
2019-06-26T05:20:34.717Z,23.26
2019-06-26T05:21:34.704Z,23.29
2019-06-26T05:22:34.695Z,23.42
2019-06-26T05:23:34.686Z,23.47
2019-06-26T05:24:34.885Z,23.57
2019-06-26T05:25:34.669Z,23.68
2019-06-26T05:26:34.647Z,23.72
2019-06-26T05:27:34.637Z,23.82
2019-06-26T05:28:34.625Z,23.83
2019-06-26T05:29:34.619Z,24.07
2019-06-26T05:30:34.668Z,24.14
2019-06-26T05:31:34.615Z,24.35
2019-06-26T05:32:34.579Z,24.45
2019-06-26T05:33:34.567Z,24.64
2019-06-26T05:34:34.555Z,24.83
2019-06-26T05:35:35.329Z,24.91
2019-06-26T05:36:34.617Z,24.91
2019-06-26T05:37:34.643Z,24.95
2019-06-26T05:38:34.511Z,24.97
2019-06-26T05:39:34.502Z,24.98
2019-06-26T05:40:34.490Z,25.06
2019-06-26T05:41:34.514Z,25.16
2019-06-26T05:42:34.532Z,25.17
2019-06-26T05:43:34.474Z,25.24
2019-06-26T05:44:34.445Z,25.30
2019-06-26T05:45:34.434Z,25.42
2019-06-26T05:46:34.429Z,25.39
2019-06-26T05:47:34.424Z,25.49
2019-06-26T05:48:34.613Z,25.64
2019-06-26T05:49:34.390Z,25.72
2019-06-26T05:50:34.380Z,25.72
2019-06-26T05:51:34.372Z,25.72
2019-06-26T05:52:34.367Z,25.89
2019-06-26T05:53:34.348Z,25.91
2019-06-26T05:54:34.432Z,25.83
2019-06-26T05:55:34.350Z,25.94
2019-06-26T05:56:34.310Z,25.97
2019-06-26T05:57:34.303Z,26.15
2019-06-26T05:58:34.291Z,26.28
2019-06-26T05:59:34.278Z,26.46
2019-06-26T06:00:34.329Z,26.65
2019-06-26T06:01:34.253Z,26.77
2019-06-26T06:02:34.258Z,26.91
2019-06-26T06:03:34.290Z,27.21
2019-06-26T06:04:34.221Z,27.50
2019-06-26T06:05:34.211Z,27.71
2019-06-26T06:06:41.699Z,28.07
2019-06-26T06:07:35.190Z,28.16
2019-06-26T06:08:34.178Z,28.32
2019-06-26T06:09:34.165Z,28.54
2019-06-26T06:10:34.154Z,28.88
2019-06-26T06:11:34.142Z,29.23
2019-06-26T06:12:34.344Z,29.34
2019-06-26T06:13:34.265Z,29.45
2019-06-26T06:14:34.112Z,29.71
2019-06-26T06:15:34.100Z,29.97
2019-06-26T06:16:46.975Z,30.18
2019-06-26T06:17:35.134Z,30.26
2019-06-26T06:18:34.072Z,30.50
2019-06-26T06:19:34.054Z,30.74
2019-06-26T06:20:34.042Z,31.12
2019-06-26T06:21:34.033Z,31.23
2019-06-26T06:22:34.033Z,31.35
2019-06-26T06:23:34.070Z,31.26
2019-06-26T06:24:34.003Z,30.94
2019-06-26T06:25:33.988Z,31.18
2019-06-26T06:26:33.978Z,31.61
2019-06-26T06:27:33.967Z,31.82
2019-06-26T06:28:33.987Z,31.65
2019-06-26T06:29:33.995Z,31.72
2019-06-26T06:30:33.934Z,32.17
2019-06-26T06:31:34.132Z,32.39
2019-06-26T06:32:33.911Z,32.20
2019-06-26T06:33:33.901Z,32.36
2019-06-26T06:34:33.889Z,32.39
2019-06-26T06:35:33.880Z,32.52
2019-06-26T06:36:33.871Z,32.59
2019-06-26T06:37:33.920Z,32.29
2019-06-26T06:38:33.853Z,32.21
2019-06-26T06:39:33.840Z,32.42
2019-06-26T06:40:33.833Z,32.44
2019-06-26T06:41:33.816Z,32.67
2019-06-26T06:42:33.803Z,32.55
2019-06-26T06:43:34.007Z,32.61
2019-06-26T06:44:33.783Z,32.76
2019-06-26T06:45:33.772Z,32.85
2019-06-26T06:46:33.766Z,33.01
2019-06-26T06:47:33.751Z,32.91
2019-06-26T06:48:33.740Z,32.84
2019-06-26T06:49:33.800Z,32.96
2019-06-26T06:50:33.719Z,33.01
2019-06-26T06:51:33.708Z,33.30
2019-06-26T06:52:33.696Z,33.53
2019-06-26T06:53:33.693Z,33.39
2019-06-26T06:54:33.678Z,33.04
2019-06-26T06:55:33.728Z,32.79
2019-06-26T06:56:33.654Z,32.85
2019-06-26T06:57:33.670Z,32.73
2019-06-26T06:58:33.633Z,32.99
2019-06-26T06:59:33.680Z,33.03
2019-06-26T07:00:33.642Z,33.26
2019-06-26T07:01:33.812Z,33.52
2019-06-26T07:02:33.588Z,33.60
2019-06-26T07:03:33.626Z,33.87
2019-06-26T07:04:33.567Z,34.08
2019-06-26T07:05:33.557Z,33.71
2019-06-26T07:06:33.646Z,33.95
2019-06-26T07:07:33.598Z,33.85
2019-06-26T07:08:33.527Z,34.02
2019-06-26T07:09:33.514Z,34.22
2019-06-26T07:10:33.506Z,34.29
2019-06-26T07:11:33.493Z,34.08
2019-06-26T07:12:33.748Z,34.19
2019-06-26T07:13:33.582Z,34.02
2019-06-26T07:14:33.462Z,33.89
2019-06-26T07:15:33.455Z,33.53
2019-06-26T07:16:33.443Z,33.68
2019-06-26T07:17:33.430Z,33.87
2019-06-26T07:18:33.420Z,33.83
2019-06-26T07:19:33.459Z,33.74
2019-06-26T07:20:33.408Z,34.05
2019-06-26T07:21:33.481Z,34.34
2019-06-26T07:22:33.377Z,34.57
2019-06-26T07:23:33.500Z,34.51
2019-06-26T07:24:33.356Z,34.56
2019-06-26T07:25:33.344Z,34.45
2019-06-26T07:26:33.334Z,34.34
2019-06-26T07:27:33.386Z,34.34
2019-06-26T07:28:33.315Z,34.48
2019-06-26T07:29:33.306Z,34.92
2019-06-26T07:30:33.372Z,35.40
2019-06-26T07:31:33.282Z,35.26
2019-06-26T07:32:33.271Z,34.95
2019-06-26T07:33:33.324Z,34.84
2019-06-26T07:34:33.250Z,34.81
2019-06-26T07:35:33.239Z,34.83
2019-06-26T07:36:33.229Z,34.79
2019-06-26T07:37:33.219Z,34.29
2019-06-26T07:38:33.207Z,34.19
2019-06-26T07:39:33.249Z,34.29
2019-06-26T07:40:33.188Z,34.09
2019-06-26T07:41:33.440Z,34.09
2019-06-26T07:42:33.172Z,34.22
2019-06-26T07:43:33.155Z,34.54
2019-06-26T07:44:33.145Z,34.58
2019-06-26T07:45:33.135Z,34.64
2019-06-26T07:46:33.124Z,34.60
2019-06-26T07:47:43.214Z,34.69
2019-06-26T07:48:34.100Z,34.83
2019-06-26T07:49:33.125Z,34.92
2019-06-26T07:50:33.083Z,35.06
2019-06-26T07:51:33.164Z,34.74
2019-06-26T07:52:33.059Z,35.01
2019-06-26T07:53:33.113Z,35.02
2019-06-26T07:54:33.039Z,35.20
2019-06-26T07:55:33.027Z,34.98
2019-06-26T07:56:33.015Z,35.30
2019-06-26T07:57:33.004Z,35.47
2019-06-26T07:58:32.998Z,35.66
2019-06-26T07:59:33.253Z,35.88
2019-06-26T08:00:32.975Z,35.60
2019-06-26T08:01:32.969Z,35.69
2019-06-26T08:02:32.951Z,35.76
2019-06-26T08:03:32.959Z,35.70
2019-06-26T08:04:32.931Z,35.86
2019-06-26T08:05:32.998Z,35.51
2019-06-26T08:06:32.916Z,35.69
2019-06-26T08:07:32.898Z,35.81
2019-06-26T08:08:32.887Z,35.86
2019-06-26T08:09:32.876Z,35.86
2019-06-26T08:10:32.867Z,35.95
2019-06-26T08:11:33.067Z,36.04
2019-06-26T08:12:32.845Z,35.77
2019-06-26T08:13:32.855Z,35.97
2019-06-26T08:14:32.824Z,35.95
2019-06-26T08:15:32.834Z,36.12
2019-06-26T08:16:34.473Z,36.54
2019-06-26T08:17:33.038Z,36.04
2019-06-26T08:18:32.801Z,35.86
2019-06-26T08:19:32.773Z,35.97
2019-06-26T08:20:32.764Z,35.93
2019-06-26T08:21:32.751Z,35.79
2019-06-26T08:22:32.751Z,35.91
2019-06-26T08:23:32.792Z,36.07
2019-06-26T08:24:32.718Z,36.23
2019-06-26T08:25:32.713Z,36.58
2019-06-26T08:26:32.699Z,37.21
2019-06-26T08:27:32.689Z,37.54
2019-06-26T08:28:32.679Z,37.16
2019-06-26T08:29:32.730Z,36.73
2019-06-26T08:30:32.655Z,36.48
2019-06-26T08:31:32.647Z,36.79
2019-06-26T08:32:32.636Z,37.19
2019-06-26T08:33:32.626Z,37.28
2019-06-26T08:34:32.614Z,37.09
2019-06-26T08:35:32.714Z,36.83
2019-06-26T08:36:32.591Z,36.61
2019-06-26T08:37:32.811Z,36.51
2019-06-26T08:38:32.577Z,36.70
2019-06-26T08:39:32.565Z,36.72
2019-06-26T08:40:32.548Z,37.16
2019-06-26T08:41:32.590Z,37.29
2019-06-26T08:42:32.590Z,36.92
2019-06-26T08:43:32.518Z,36.95
2019-06-26T08:44:32.505Z,36.80
2019-06-26T08:45:32.500Z,36.86
2019-06-26T08:46:32.486Z,36.72
2019-06-26T08:47:32.474Z,36.95
2019-06-26T08:48:39.404Z,37.01
2019-06-26T08:49:33.451Z,36.73
2019-06-26T08:50:32.457Z,36.70
2019-06-26T08:51:32.435Z,36.76
2019-06-26T08:52:32.495Z,36.90
2019-06-26T08:53:32.422Z,37.07
2019-06-26T08:54:32.426Z,36.82
2019-06-26T08:55:32.416Z,36.51
2019-06-26T08:56:32.387Z,36.51
2019-06-26T08:57:32.374Z,36.68
2019-06-26T08:58:32.420Z,36.98
2019-06-26T08:59:32.346Z,37.12
2019-06-26T09:00:32.336Z,37.32
2019-06-26T09:01:32.325Z,37.70
2019-06-26T09:02:32.312Z,37.92
2019-06-26T09:03:32.304Z,38.08
2019-06-26T09:04:32.354Z,38.33
2019-06-26T09:05:46.800Z,38.29
2019-06-26T09:06:33.270Z,38.80
2019-06-26T09:07:32.266Z,38.71
2019-06-26T09:08:32.356Z,38.15
2019-06-26T09:09:32.243Z,37.93
2019-06-26T09:10:32.290Z,37.62
2019-06-26T09:11:32.222Z,38.01
2019-06-26T09:12:32.278Z,38.22
2019-06-26T09:13:32.202Z,38.53
2019-06-26T09:14:32.196Z,38.45
2019-06-26T09:15:32.180Z,38.53
2019-06-26T09:16:32.169Z,38.80
2019-06-26T09:17:32.158Z,38.17
2019-06-26T09:18:35.956Z,38.22
2019-06-26T09:19:32.142Z,38.41
2019-06-26T09:20:32.126Z,38.80
2019-06-26T09:21:32.117Z,38.83
2019-06-26T09:22:32.104Z,39.09
2019-06-26T09:23:32.097Z,39.05
2019-06-26T09:24:32.311Z,38.85
2019-06-26T09:25:32.074Z,38.87
2019-06-26T09:26:32.063Z,38.67
2019-06-26T09:27:32.055Z,38.48
2019-06-26T09:28:32.046Z,38.17
2019-06-26T09:29:32.035Z,38.10
2019-06-26T09:30:32.081Z,37.96
2019-06-26T09:31:32.014Z,38.05
2019-06-26T09:32:32.008Z,37.88
2019-06-26T09:33:32.584Z,38.14
2019-06-26T09:34:31.990Z,38.14
2019-06-26T09:35:31.975Z,38.17
2019-06-26T09:36:31.962Z,38.33
2019-06-26T09:37:31.958Z,39.01
2019-06-26T09:38:31.942Z,38.76
2019-06-26T09:39:31.998Z,38.34
2019-06-26T09:40:32.271Z,38.01
2019-06-26T09:41:31.914Z,37.67
2019-06-26T09:42:31.904Z,37.92
2019-06-26T09:43:31.899Z,38.27
2019-06-26T09:44:31.882Z,38.96
2019-06-26T09:45:31.958Z,39.02
2019-06-26T09:46:31.862Z,39.06
2019-06-26T09:47:31.852Z,38.27
2019-06-26T09:48:31.852Z,38.11
2019-06-26T09:49:31.833Z,38.08
2019-06-26T09:50:31.823Z,38.30
2019-06-26T09:51:31.903Z,38.34
2019-06-26T09:52:31.908Z,37.98
2019-06-26T09:53:45.963Z,37.89
2019-06-26T09:54:32.784Z,38.24
2019-06-26T09:55:31.772Z,38.33
2019-06-26T09:56:31.762Z,38.71
2019-06-26T09:57:31.815Z,38.29
2019-06-26T09:58:31.738Z,38.29
2019-06-26T09:59:31.732Z,38.70
2019-06-26T10:00:31.718Z,38.71
2019-06-26T10:01:31.711Z,38.80
2019-06-26T10:02:31.702Z,38.86
2019-06-26T10:03:31.906Z,38.75
2019-06-26T10:04:31.680Z,39.35
2019-06-26T10:05:31.673Z,39.32
2019-06-26T10:06:31.660Z,38.60
2019-06-26T10:07:31.652Z,38.75
2019-06-26T10:08:31.641Z,38.63
2019-06-26T10:09:31.697Z,38.36
2019-06-26T10:10:31.621Z,38.11
2019-06-26T10:11:31.623Z,38.27
2019-06-26T10:12:31.604Z,38.66
2019-06-26T10:13:31.588Z,39.55
2019-06-26T10:14:46.698Z,39.93
2019-06-26T10:15:32.779Z,40.23
2019-06-26T10:16:31.561Z,40.18
2019-06-26T10:17:31.553Z,40.56
2019-06-26T10:18:31.541Z,41.05
2019-06-26T10:19:31.531Z,41.58
2019-06-26T10:20:31.526Z,41.15
2019-06-26T10:21:31.575Z,40.08
2019-06-26T10:22:31.506Z,39.47
2019-06-26T10:23:31.496Z,39.39
2019-06-26T10:24:31.486Z,39.37
2019-06-26T10:25:31.476Z,39.59
2019-06-26T10:26:32.699Z,39.84
2019-06-26T10:27:31.538Z,39.59
2019-06-26T10:28:31.469Z,39.98
2019-06-26T10:29:31.435Z,40.24
2019-06-26T10:30:31.428Z,40.72
2019-06-26T10:31:31.417Z,41.20
2019-06-26T10:32:31.407Z,41.75
2019-06-26T10:33:31.463Z,40.98
2019-06-26T10:34:31.387Z,39.92
2019-06-26T10:35:31.381Z,39.39
2019-06-26T10:36:31.373Z,39.52
2019-06-26T10:37:31.359Z,39.89
2019-06-26T10:38:31.352Z,39.95
2019-06-26T10:39:31.555Z,40.26
2019-06-26T10:40:31.351Z,40.26
2019-06-26T10:41:31.328Z,40.53
2019-06-26T10:42:31.317Z,41.03
2019-06-26T10:43:31.318Z,41.25
2019-06-26T10:44:31.297Z,41.50
2019-06-26T10:45:31.347Z,41.33
2019-06-26T10:46:31.291Z,40.43
2019-06-26T10:47:31.478Z,39.37
2019-06-26T10:48:31.261Z,39.01
2019-06-26T10:49:31.248Z,39.24
2019-06-26T10:50:31.240Z,39.95
2019-06-26T10:51:31.295Z,39.81
2019-06-26T10:52:31.241Z,40.04
2019-06-26T10:53:31.213Z,40.08
2019-06-26T10:54:31.205Z,40.52
2019-06-26T10:55:31.191Z,40.02
2019-06-26T10:56:31.197Z,39.36
2019-06-26T10:57:31.239Z,38.96
2019-06-26T10:58:31.170Z,38.79
2019-06-26T10:59:31.157Z,38.92
2019-06-26T11:00:31.157Z,39.39
2019-06-26T11:01:31.136Z,39.56
2019-06-26T11:02:31.128Z,39.55
2019-06-26T11:03:31.182Z,39.69
2019-06-26T11:04:31.117Z,40.32
2019-06-26T11:05:31.111Z,40.52
2019-06-26T11:06:31.094Z,40.27
2019-06-26T11:07:31.081Z,40.11
2019-06-26T11:08:31.075Z,40.02
2019-06-26T11:09:31.154Z,39.43
2019-06-26T11:10:31.053Z,39.18
2019-06-26T11:11:31.042Z,39.54
2019-06-26T11:12:31.065Z,40.47
2019-06-26T11:13:31.028Z,40.90
2019-06-26T11:14:31.016Z,40.32
2019-06-26T11:15:31.070Z,39.86
2019-06-26T11:16:30.995Z,39.51
2019-06-26T11:17:30.991Z,39.64
2019-06-26T11:18:30.977Z,40.12
2019-06-26T11:19:43.199Z,40.69
2019-06-26T11:20:32.020Z,41.08
2019-06-26T11:21:30.951Z,40.91
2019-06-26T11:22:30.942Z,41.00
2019-06-26T11:23:30.932Z,41.44
2019-06-26T11:24:30.918Z,42.01
2019-06-26T11:25:30.910Z,41.33
2019-06-26T11:26:30.964Z,40.84
2019-06-26T11:27:30.890Z,40.96
2019-06-26T11:28:30.880Z,41.78
2019-06-26T11:29:30.872Z,41.49
2019-06-26T11:30:30.863Z,41.43
2019-06-26T11:31:30.852Z,41.36
2019-06-26T11:32:31.081Z,40.88
2019-06-26T11:33:30.837Z,40.40
2019-06-26T11:34:30.829Z,39.69
2019-06-26T11:35:30.816Z,40.00
2019-06-26T11:36:30.807Z,40.65
2019-06-26T11:37:30.801Z,41.37
2019-06-26T11:38:31.002Z,42.20
2019-06-26T11:39:30.791Z,41.66
2019-06-26T11:40:30.772Z,41.50
2019-06-26T11:41:30.766Z,41.83
2019-06-26T11:42:32.839Z,41.98
2019-06-26T11:43:30.745Z,42.58
2019-06-26T11:44:30.800Z,43.18
2019-06-26T11:45:30.728Z,43.45
2019-06-26T11:46:30.720Z,42.20
2019-06-26T11:47:30.713Z,40.91
2019-06-26T11:48:30.708Z,40.50
2019-06-26T11:49:30.716Z,40.80
2019-06-26T11:50:30.937Z,41.54
2019-06-26T11:51:30.674Z,41.97
2019-06-26T11:52:30.667Z,42.62
2019-06-26T11:53:30.661Z,42.99
2019-06-26T11:54:30.650Z,43.45
2019-06-26T11:55:30.646Z,43.45
2019-06-26T11:56:30.802Z,44.10
2019-06-26T11:57:30.624Z,44.13
2019-06-26T11:58:30.622Z,44.58
2019-06-26T11:59:30.606Z,43.97
2019-06-26T12:00:30.872Z,43.73
2019-06-26T12:01:30.587Z,42.85
2019-06-26T12:02:30.650Z,42.46
2019-06-26T12:03:30.572Z,42.31
2019-06-26T12:04:30.565Z,42.08
2019-06-26T12:05:30.551Z,41.29
2019-06-26T12:06:30.547Z,41.41
2019-06-26T12:07:30.535Z,41.12
2019-06-26T12:08:30.745Z,41.43
2019-06-26T12:09:30.521Z,42.19
2019-06-26T12:10:30.510Z,42.87
2019-06-26T12:11:30.507Z,42.69
2019-06-26T12:12:30.491Z,43.19
2019-06-26T12:13:33.364Z,42.97
2019-06-26T12:14:30.737Z,42.97
2019-06-26T12:15:30.465Z,42.84
2019-06-26T12:16:30.456Z,43.29
2019-06-26T12:17:30.448Z,43.99
2019-06-26T12:18:30.452Z,44.24
2019-06-26T12:19:30.430Z,44.02
2019-06-26T12:20:30.486Z,43.13
2019-06-26T12:21:30.413Z,42.54
2019-06-26T12:22:30.408Z,41.77
2019-06-26T12:23:30.397Z,41.13
2019-06-26T12:24:30.430Z,41.34
2019-06-26T12:25:30.380Z,42.01
2019-06-26T12:26:30.431Z,42.69
2019-06-26T12:27:30.367Z,42.78
2019-06-26T12:28:30.355Z,42.99
2019-06-26T12:29:32.877Z,43.60
2019-06-26T12:30:30.334Z,43.45
2019-06-26T12:31:30.334Z,42.65
2019-06-26T12:32:30.403Z,42.58
2019-06-26T12:33:30.309Z,42.81
2019-06-26T12:34:30.491Z,42.91
2019-06-26T12:35:30.327Z,43.44
2019-06-26T12:36:30.481Z,43.11
2019-06-26T12:37:37.694Z,43.56
2019-06-26T12:38:31.327Z,43.57
2019-06-26T12:39:30.255Z,43.95
2019-06-26T12:40:31.463Z,44.58
2019-06-26T12:41:30.242Z,44.45
2019-06-26T12:42:30.236Z,43.90
2019-06-26T12:43:30.243Z,43.92
2019-06-26T12:44:30.468Z,43.45
2019-06-26T12:45:30.201Z,42.50
2019-06-26T12:46:30.198Z,42.38
2019-06-26T12:47:30.182Z,42.66
2019-06-26T12:48:30.197Z,42.01
2019-06-26T12:49:30.199Z,41.97
2019-06-26T12:50:35.793Z,42.35
2019-06-26T12:51:31.148Z,41.62
2019-06-26T12:52:30.142Z,41.63